Time;durP1;ratioP1;P1;durP2;ratioP2;P2;SDS_P1;SDS_P2;PMS_P1;PMS_P2;Temp;Humidity;BMP_temperature;BMP_pressure;BME280_temperature;BME280_humidity;BME280_pressure;Samples;Min_cycle;Max_cycle;Signal;HPM_P1;HPM_P2
2022/07/12 00:02:05;;;;;;;4.55;2.50;;;20.10;92.50;;;20.15;100.00;101168.38;4971037;28;20057;-77
2022/07/12 00:04:32;;;;;;;2.33;2.00;;;20.10;92.60;;;20.05;100.00;101171.53;4987309;28;20118;-77
2022/07/12 00:06:59;;;;;;;4.38;1.90;;;20.00;92.70;;;20.09;100.00;101177.59;4970920;28;20057;-77
2022/07/12 00:09:27;;;;;;;2.60;2.25;;;20.00;92.80;;;20.06;100.00;101172.41;4986804;28;20054;-77
2022/07/12 00:11:55;;;;;;;4.05;2.38;;;20.00;92.80;;;20.11;100.00;101181.91;4987108;28;20049;-77
2022/07/12 00:14:22;;;;;;;2.03;1.83;;;20.00;92.90;;;20.09;100.00;101183.81;4988401;28;20052;-76
2022/07/12 00:16:48;;;;;;;3.08;2.10;;;19.90;93.00;;;20.17;100.00;101174.50;4983714;28;20046;-77
2022/07/12 00:19:16;;;;;;;2.78;2.15;;;20.00;92.90;;;20.12;100.00;101180.97;4970106;28;20042;-76
2022/07/12 00:21:43;;;;;;;2.92;2.05;;;20.00;93.10;;;20.14;100.00;101175.56;4986618;28;20051;-77
2022/07/12 00:24:10;;;;;;;3.03;1.90;;;20.00;93.10;;;20.04;100.00;101176.97;4988233;28;20050;-76
2022/07/12 00:26:37;;;;;;;2.13;1.95;;;20.00;93.10;;;20.00;100.00;101176.25;4988448;28;20047;-76
2022/07/12 00:29:05;;;;;;;2.55;2.00;;;20.00;93.20;;;20.08;100.00;101168.72;4986159;28;20042;-76
2022/07/12 00:31:33;;;;;;;3.15;2.42;;;19.90;93.10;;;20.08;100.00;101171.38;4982771;28;20039;-76
2022/07/12 00:34:00;;;;;;;2.45;2.20;;;20.90;93.50;;;20.07;100.00;101175.00;4954648;28;20043;-76
2022/07/12 00:36:27;;;;;;;2.05;1.85;;;20.00;93.30;;;19.99;100.00;101177.19;4984163;28;20054;-76
2022/07/12 00:38:55;;;;;;;2.78;1.75;;;19.90;93.30;;;20.01;100.00;101171.78;4976786;28;20058;-76
2022/07/12 00:41:22;;;;;;;3.42;1.90;;;19.90;93.30;;;20.06;100.00;101177.75;4970842;28;20043;-76
2022/07/12 00:43:49;;;;;;;2.35;1.85;;;19.90;93.40;;;20.00;100.00;101173.56;4970976;28;20038;-76
2022/07/12 00:46:22;;;;;;;2.15;1.67;;;19.90;93.30;;;19.95;100.00;101172.97;4958779;28;20413;-76
2022/07/12 00:48:50;;;;;;;2.83;2.00;;;19.90;93.40;;;19.94;100.00;101180.09;4970779;28;20047;-77
2022/07/12 00:51:18;;;;;;;2.42;1.90;;;19.90;93.40;;;19.86;100.00;101174.25;4972975;28;20043;-77
2022/07/12 00:53:46;;;;;;;2.30;2.10;;;19.80;93.50;;;19.81;100.00;101177.16;4990242;28;20084;-76
2022/07/12 00:56:14;;;;;;;2.85;2.30;;;20.10;93.70;;;19.83;100.00;101169.06;4973880;28;20130;-77
2022/07/12 00:58:43;;;;;;;1.77;1.65;;;19.80;93.50;;;19.73;100.00;101170.47;4972513;28;20043;-77
2022/07/12 01:01:11;;;;;;;2.20;2.00;;;19.80;93.60;;;19.69;100.00;101169.75;4989054;28;20065;-77
2022/07/12 01:03:38;;;;;;;1.98;1.83;;;19.70;93.60;;;19.66;100.00;101165.41;4972364;28;20039;-76
2022/07/12 01:06:07;;;;;;;2.33;1.60;;;19.70;93.60;;;19.71;100.00;101170.53;4972635;28;20052;-78
2022/07/12 01:08:36;;;;;;;2.00;1.80;;;19.70;93.80;;;19.63;100.00;101164.72;4972585;28;20078;-77
2022/07/12 01:11:03;;;;;;;4.30;2.00;;;20.10;93.90;;;19.64;100.00;101164.63;4971370;28;20043;-76
2022/07/12 01:13:30;;;;;;;2.78;1.80;;;19.60;93.80;;;19.56;100.00;101158.81;4955771;28;20077;-76
2022/07/12 01:15:58;;;;;;;2.30;2.05;;;19.50;94.00;;;19.57;100.00;101157.88;4973728;28;20054;-76
2022/07/12 01:18:27;;;;;;;2.10;1.90;;;19.60;94.00;;;19.52;100.00;101168.78;4988847;28;20055;-76
2022/07/12 01:20:54;;;;;;;1.80;1.70;;;19.50;94.10;;;19.40;100.00;101170.25;4971865;28;20039;-77
2022/07/12 01:23:24;;;;;;;3.00;1.95;;;19.40;94.20;;;19.41;100.00;101169.31;4971110;28;20043;-77
2022/07/12 01:25:51;;;;;;;1.98;1.80;;;19.40;94.20;;;19.48;100.00;101167.22;4971370;28;20146;-77
2022/07/12 01:28:18;;;;;;;6.45;2.53;;;19.30;94.10;;;19.42;100.00;101168.38;4987378;28;20053;-77
2022/07/12 01:30:47;;;;;;;2.33;1.85;;;19.40;94.20;;;19.44;100.00;101165.63;4954218;28;20042;-76
2022/07/12 01:33:16;;;;;;;2.47;1.75;;;19.30;94.10;;;19.30;100.00;101168.94;4971838;28;20081;-77
2022/07/12 01:35:45;;;;;;;2.10;1.80;;;19.30;94.50;;;19.17;100.00;101170.47;4970725;28;20042;-77
2022/07/12 01:38:12;;;;;;;2.85;1.92;;;19.20;94.70;;;19.16;100.00;101171.41;4987414;28;20074;-77
2022/07/12 01:40:39;;;;;;;3.58;1.85;;;19.20;94.60;;;18.93;100.00;101174.19;4986148;28;20051;-77
2022/07/12 01:43:07;;;;;;;2.30;2.10;;;19.70;95.10;;;18.75;100.00;101183.91;4970520;28;20808;-77
2022/07/12 01:45:34;;;;;;;4.30;2.20;;;18.90;95.30;;;18.70;100.00;101181.47;4971102;28;20038;-76
2022/07/12 01:48:01;;;;;;;2.83;2.25;;;18.80;95.40;;;18.70;100.00;101185.91;4989719;28;20765;-77
2022/07/12 01:50:28;;;;;;;1.98;1.77;;;18.80;95.60;;;18.78;100.00;101182.88;4991268;28;20056;-77
2022/07/12 01:52:55;;;;;;;2.60;2.40;;;18.70;95.50;;;18.81;100.00;101180.97;4989515;28;20488;-76
2022/07/12 01:55:23;;;;;;;2.42;2.10;;;18.80;95.50;;;18.85;100.00;101174.53;4989345;28;20048;-76
2022/07/12 01:57:50;;;;;;;3.55;2.20;;;18.80;95.50;;;18.70;100.00;101172.56;4989292;28;20058;-77
2022/07/12 02:00:19;;;;;;;2.65;2.45;;;18.80;95.70;;;18.60;100.00;101171.28;4989184;28;20053;-76
2022/07/12 02:02:47;;;;;;;2.70;2.10;;;18.70;95.60;;;18.53;100.00;101174.22;4989250;28;20042;-76
2022/07/12 02:05:14;;;;;;;2.05;1.77;;;18.60;95.70;;;18.28;100.00;101182.41;4989337;28;20046;-77
2022/07/12 02:07:41;;;;;;;2.40;2.10;;;18.60;96.00;;;18.17;100.00;101182.00;4989311;28;20400;-77
2022/07/12 02:10:09;;;;;;;2.40;2.20;;;18.40;96.10;;;18.21;100.00;101180.97;4972928;28;20050;-76
2022/07/12 02:12:36;;;;;;;2.70;1.73;;;18.40;96.20;;;18.22;100.00;101180.88;4989563;28;20594;-77
2022/07/12 02:15:07;;;;;;;2.55;1.83;;;18.30;96.30;;;18.22;100.00;101175.56;5003208;28;20042;-76
2022/07/12 02:17:35;;;;;;;2.22;2.03;;;18.30;96.30;;;18.21;100.00;101170.31;4982537;28;20047;-76
2022/07/12 02:20:03;;;;;;;3.80;2.22;;;18.20;96.20;;;18.05;100.00;101175.41;4952687;28;20078;-76
2022/07/12 02:22:30;;;;;;;2.33;2.10;;;18.20;96.30;;;17.97;100.00;101176.59;4953925;28;20042;-77
2022/07/12 02:24:57;;;;;;;2.17;1.98;;;18.70;96.70;;;17.80;100.00;101171.13;4971294;28;20049;-77
2022/07/12 02:27:24;;;;;;;2.05;1.83;;;18.10;96.60;;;17.89;100.00;101173.38;4985890;28;20085;-77
2022/07/12 02:29:51;;;;;;;2.50;2.30;;;18.00;96.60;;;17.77;100.00;101174.75;4970305;28;20057;-76
2022/07/12 02:32:18;;;;;;;2.67;2.10;;;18.00;96.80;;;17.74;100.00;101174.00;4970933;28;20053;-76
2022/07/12 02:34:45;;;;;;;2.53;2.20;;;17.90;96.70;;;17.74;100.00;101172.25;4970692;28;20046;-77
2022/07/12 02:37:14;;;;;;;2.47;2.28;;;17.90;96.80;;;17.81;100.00;101167.53;4986019;28;20047;-77
2022/07/12 02:39:41;;;;;;;3.17;2.00;;;17.80;96.80;;;17.73;100.00;101175.81;4968819;28;20169;-76
2022/07/12 02:42:08;;;;;;;2.50;2.30;;;17.80;97.00;;;17.73;100.00;101173.16;4969561;28;20042;-77
2022/07/12 02:44:35;;;;;;;2.33;2.05;;;17.90;97.00;;;17.58;100.00;101172.88;4985439;28;20066;-77
2022/07/12 02:47:02;;;;;;;3.72;2.38;;;17.70;97.00;;;17.52;100.00;101185.53;4969916;28;20527;-77
2022/07/12 02:49:29;;;;;;;2.28;2.03;;;17.60;97.30;;;17.52;100.00;101181.06;4985165;28;20039;-77
2022/07/12 02:51:56;;;;;;;2.10;1.95;;;17.60;97.30;;;17.55;100.00;101188.94;4969276;28;20051;-76
2022/07/12 02:54:23;;;;;;;4.75;2.00;;;17.60;97.20;;;17.53;100.00;101189.94;4953021;28;20086;-76
2022/07/12 02:56:50;;;;;;;2.40;2.20;;;17.60;97.30;;;17.60;100.00;101195.88;4969591;28;20454;-78
2022/07/12 02:59:17;;;;;;;2.20;2.00;;;17.60;97.30;;;17.49;100.00;101193.66;4969705;28;20420;-77
2022/07/12 03:01:44;;;;;;;2.58;2.38;;;17.60;97.40;;;17.49;100.00;101199.81;4951469;28;20057;-76
2022/07/12 03:04:11;;;;;;;2.95;2.10;;;17.60;97.40;;;17.42;100.00;101195.69;4952304;28;20070;-77
2022/07/12 03:06:38;;;;;;;3.38;2.17;;;17.50;97.40;;;17.54;100.00;101197.00;4937451;28;20047;-76
2022/07/12 03:09:05;;;;;;;5.15;2.00;;;17.50;97.30;;;17.46;100.00;101197.28;4935369;28;20042;-76
2022/07/12 03:11:35;;;;;;;2.90;2.10;;;17.50;97.40;;;17.46;100.00;101191.97;4950765;28;20051;-76
2022/07/12 03:14:02;;;;;;;2.75;2.55;;;17.50;97.50;;;17.55;100.00;101194.25;4951110;28;20058;-78
2022/07/12 03:16:29;;;;;;;2.20;2.00;;;17.50;97.40;;;17.45;100.00;101206.22;4940062;28;20054;-76
2022/07/12 03:18:56;;;;;;;2.45;2.15;;;17.50;97.50;;;17.43;100.00;101200.09;4950540;28;20057;-76
2022/07/12 03:21:23;;;;;;;2.05;1.90;;;17.50;97.40;;;17.42;100.00;101206.34;4950770;28;20059;-76
2022/07/12 03:23:50;;;;;;;3.40;2.03;;;18.00;97.50;;;17.42;100.00;101209.00;4950421;28;20047;-77
2022/07/12 03:26:17;;;;;;;2.33;1.90;;;18.10;97.60;;;17.28;100.00;101209.50;4950168;28;20575;-76
2022/07/12 03:28:44;;;;;;;5.03;2.58;;;17.40;97.60;;;17.33;100.00;101215.53;4934270;28;20035;-76
2022/07/12 03:31:11;;;;;;;3.03;1.95;;;17.40;97.50;;;17.31;100.00;101205.88;4950904;28;20087;-77
2022/07/12 03:33:38;;;;;;;9.00;2.03;;;18.00;97.90;;;17.43;100.00;101214.22;4981991;28;20634;-77
2022/07/12 03:36:08;;;;;;;3.00;2.45;;;17.40;97.40;;;17.34;100.00;101211.06;4970846;28;20050;-76
2022/07/12 03:38:36;;;;;;;2.40;1.95;;;17.40;97.70;;;17.24;100.00;101215.88;4971419;28;20129;-76
2022/07/12 03:41:03;;;;;;;2.65;2.25;;;17.40;97.70;;;17.07;100.00;101220.06;4969723;28;20042;-76
2022/07/12 03:43:30;;;;;;;4.18;2.20;;;17.30;97.90;;;17.03;100.00;101213.13;4970611;28;20050;-77
2022/07/12 03:45:57;;;;;;;3.42;2.38;;;17.20;98.00;;;17.10;100.00;101217.28;4987765;28;20071;-77
2022/07/12 03:48:24;;;;;;;2.22;1.98;;;17.20;98.20;;;17.07;100.00;101217.41;4987604;28;20049;-77
2022/07/12 03:50:51;;;;;;;2.42;2.22;;;17.20;98.20;;;16.98;100.00;101223.91;4988931;28;20042;-77
2022/07/12 03:53:18;;;;;;;3.53;2.10;;;17.00;98.20;;;16.91;100.00;101232.16;4986498;28;20046;-77
2022/07/12 03:55:45;;;;;;;9.73;2.95;;;17.10;98.30;;;16.89;100.00;101229.53;4987531;28;20050;-77
2022/07/12 03:58:13;;;;;;;2.67;2.22;;;17.00;98.30;;;16.79;100.00;101233.47;4987088;28;20057;-80
2022/07/12 04:00:42;;;;;;;3.33;2.40;;;17.00;98.50;;;16.86;100.00;101241.16;4970316;28;20046;-78
2022/07/12 04:03:10;;;;;;;3.20;2.28;;;16.90;98.50;;;16.83;100.00;101238.59;4986918;28;20086;-77
2022/07/12 04:05:38;;;;;;;2.63;2.42;;;16.90;98.50;;;16.95;100.00;101239.09;4988941;28;20038;-77
2022/07/12 04:08:05;;;;;;;2.30;2.10;;;16.90;98.40;;;16.88;100.00;101238.44;4977049;28;20049;-78
2022/07/12 04:10:33;;;;;;;2.35;2.15;;;16.90;98.50;;;16.94;100.00;101243.56;4968296;28;20122;-78
2022/07/12 04:13:00;;;;;;;2.58;2.20;;;16.90;98.40;;;16.84;100.00;101247.47;4964487;28;20047;-78
2022/07/12 04:15:27;;;;;;;2.72;2.28;;;16.90;98.70;;;16.92;100.00;101242.72;4970519;28;20038;-78
2022/07/12 04:17:54;;;;;;;2.17;1.98;;;16.90;98.40;;;16.84;100.00;101248.31;4988546;28;20057;-77
2022/07/12 04:20:21;;;;;;;4.22;2.20;;;16.80;98.30;;;16.91;100.00;101240.13;4986396;28;20096;-77
2022/07/12 04:22:48;;;;;;;2.88;2.35;;;16.90;98.20;;;16.93;100.00;101244.44;4983394;28;20046;-76
2022/07/12 04:25:16;;;;;;;3.28;2.33;;;16.90;98.30;;;16.94;100.00;101243.56;4971749;28;20759;-76
2022/07/12 04:27:43;;;;;;;2.70;2.20;;;17.00;98.20;;;16.76;100.00;101245.06;4969023;28;20047;-79
2022/07/12 04:30:10;;;;;;;2.40;2.20;;;16.90;98.30;;;16.74;100.00;101246.94;4969516;28;20699;-79
2022/07/12 04:32:37;;;;;;;2.38;2.17;;;17.00;98.20;;;16.92;100.00;101232.09;4956030;28;20121;-79
2022/07/12 04:35:05;;;;;;;3.67;2.38;;;17.00;98.40;;;17.05;100.00;101237.88;4959984;28;20050;-78
2022/07/12 04:37:32;;;;;;;2.42;2.20;;;16.80;98.00;;;17.07;100.00;101241.31;4956983;28;20049;-77
2022/07/12 04:39:59;;;;;;;3.03;2.53;;;17.10;98.00;;;17.19;100.00;101239.97;4991703;28;20034;-76
2022/07/12 04:42:26;;;;;;;2.35;2.15;;;17.10;98.10;;;17.31;100.00;101243.97;4983394;28;20053;-79
2022/07/12 04:44:54;;;;;;;2.78;2.55;;;17.20;98.10;;;17.28;100.00;101244.09;4972520;28;20114;-77
2022/07/12 04:47:21;;;;;;;2.40;2.20;;;17.20;98.10;;;17.29;100.00;101246.69;4963422;28;20050;-78
2022/07/12 04:49:48;;;;;;;3.00;2.50;;;17.20;98.20;;;17.38;100.00;101242.81;4983055;28;20038;-76
2022/07/12 04:52:15;;;;;;;3.17;2.47;;;17.20;97.90;;;17.43;100.00;101245.31;4977494;28;20042;-74
2022/07/12 04:54:42;;;;;;;3.05;2.75;;;17.30;98.20;;;17.40;100.00;101245.41;4980014;28;20533;-75
2022/07/12 04:57:09;;;;;;;3.42;2.42;;;17.30;98.10;;;17.47;100.00;101241.59;4969118;28;20038;-78
2022/07/12 04:59:36;;;;;;;3.65;2.72;;;17.40;98.20;;;17.62;100.00;101247.25;4975130;28;20058;-77
2022/07/12 05:02:03;;;;;;;2.63;2.38;;;17.40;98.10;;;17.69;100.00;101246.94;4993857;28;20055;-76
2022/07/12 05:04:33;;;;;;;2.55;2.35;;;17.50;97.90;;;17.67;100.00;101245.25;4994932;28;20042;-76
2022/07/12 05:07:00;;;;;;;2.92;2.63;;;17.50;98.20;;;17.76;100.00;101242.22;4999629;28;20054;-79
2022/07/12 05:09:27;;;;;;;4.72;2.90;;;17.60;97.90;;;17.75;100.00;101248.47;4979101;28;20392;-76
2022/07/12 05:11:54;;;;;;;3.13;2.42;;;17.70;97.90;;;17.76;100.00;101255.53;4970110;28;20583;-76
2022/07/12 05:14:21;;;;;;;3.97;2.58;;;17.70;98.10;;;17.69;100.00;101251.38;4987176;28;20051;-76
2022/07/12 05:16:49;;;;;;;3.03;2.47;;;17.70;98.30;;;17.65;100.00;101240.00;4987260;28;20121;-77
2022/07/12 05:19:16;;;;;;;4.22;2.92;;;17.70;98.20;;;17.79;100.00;101246.53;4987010;28;20138;-75
2022/07/12 05:21:43;;;;;;;2.55;2.35;;;17.80;98.30;;;17.96;100.00;101241.44;4986955;28;20038;-77
2022/07/12 05:24:10;;;;;;;4.50;2.72;;;17.80;97.90;;;18.07;100.00;101243.66;4986434;28;20042;-76
2022/07/12 05:26:37;;;;;;;5.97;2.65;;;17.80;97.80;;;18.12;100.00;101248.81;4988728;28;20031;-76
2022/07/12 05:29:04;;;;;;;2.63;2.40;;;17.80;97.70;;;18.21;100.00;101255.53;4962465;28;20122;-76
2022/07/12 05:31:31;;;;;;;2.65;2.40;;;18.00;97.90;;;18.27;100.00;101248.16;4970891;28;20046;-76
2022/07/12 05:33:59;;;;;;;2.47;2.28;;;18.00;97.50;;;18.38;100.00;101253.03;4970746;28;20397;-75
2022/07/12 05:36:27;;;;;;;3.50;2.50;;;18.10;97.60;;;18.42;100.00;101262.63;4972422;28;20058;-76
2022/07/12 05:38:54;;;;;;;3.15;2.20;;;18.20;97.40;;;18.49;100.00;101265.00;4973861;28;20053;-75
2022/07/12 05:41:21;;;;;;;2.15;1.95;;;17.40;97.20;;;18.51;100.00;101264.00;4988652;28;20085;-75
2022/07/12 05:43:48;;;;;;;7.25;2.28;;;18.30;97.40;;;18.58;100.00;101263.78;4979172;28;20507;-75
2022/07/12 05:46:15;;;;;;;2.40;2.20;;;18.30;97.50;;;18.60;100.00;101260.06;4981238;28;20043;-76
2022/07/12 05:48:43;;;;;;;2.80;2.20;;;18.40;97.30;;;18.69;100.00;101265.03;4981473;28;20078;-75
2022/07/12 05:53:56;;;;;;;2.60;2.35;;;18.50;97.50;;;18.79;100.00;101281.47;4973936;28;20054;-75
2022/07/12 05:56:23;;;;;;;2.15;1.95;;;18.50;97.30;;;18.85;100.00;101275.84;4981673;28;20050;-76
2022/07/12 05:58:50;;;;;;;2.50;2.30;;;18.60;97.20;;;18.92;100.00;101283.59;4988870;28;20050;-75
2022/07/12 06:01:18;;;;;;;2.15;1.95;;;18.60;97.00;;;18.94;100.00;101285.25;4989128;28;20138;-76
2022/07/12 06:03:45;;;;;;;3.05;2.08;;;18.70;96.80;;;19.06;100.00;101294.53;4989445;28;20079;-76
2022/07/12 06:06:12;;;;;;;2.92;2.10;;;18.80;96.80;;;19.08;100.00;101292.69;4979713;28;20039;-74
2022/07/12 06:08:39;;;;;;;2.35;2.00;;;18.80;96.80;;;19.13;100.00;101300.47;4970088;28;20078;-76
2022/07/12 06:11:06;;;;;;;6.18;1.85;;;18.90;96.70;;;19.17;100.00;101307.41;4971219;28;20161;-76
2022/07/12 06:13:34;;;;;;;1.90;1.80;;;18.90;96.70;;;19.27;100.00;101306.00;4971025;28;20051;-76
2022/07/12 06:16:01;;;;;;;2.60;1.65;;;19.10;96.60;;;19.32;100.00;101302.28;4985556;28;20134;-76
2022/07/12 06:18:28;;;;;;;2.47;1.65;;;19.00;96.50;;;19.39;100.00;101301.06;5005615;28;20050;-76
2022/07/12 06:20:55;;;;;;;1.95;1.73;;;19.10;96.40;;;19.43;100.00;101305.31;4990639;28;20052;-75
2022/07/12 06:23:22;;;;;;;2.08;1.60;;;19.10;96.20;;;19.51;100.00;101305.84;4989073;28;20039;-75
2022/07/12 06:25:49;;;;;;;2.08;1.80;;;19.20;96.20;;;19.59;100.00;101304.59;4989731;28;20057;-75
2022/07/12 06:28:22;;;;;;;1.83;1.60;;;19.30;96.20;;;19.66;100.00;101306.03;4990638;28;20101;-76
2022/07/12 06:30:49;;;;;;;2.45;1.63;;;19.30;96.00;;;19.71;100.00;101312.03;4989441;28;20048;-76
2022/07/12 06:33:16;;;;;;;1.80;1.58;;;19.40;96.00;;;19.76;100.00;101311.81;4988931;28;20049;-76
2022/07/12 06:35:43;;;;;;;2.38;1.75;;;19.40;96.00;;;19.81;100.00;101316.00;4988999;28;20080;-76
2022/07/12 06:38:10;;;;;;;1.65;1.55;;;19.50;95.80;;;19.85;100.00;101308.72;4989686;28;20061;-75
2022/07/12 06:40:37;;;;;;;2.75;1.42;;;19.50;95.60;;;19.94;100.00;101313.63;4988539;28;20405;-75
2022/07/12 06:43:12;;;;;;;1.83;1.40;;;19.60;95.50;;;20.01;100.00;101319.53;4988918;28;20046;-75
2022/07/12 06:45:40;;;;;;;1.98;1.50;;;19.60;95.70;;;20.10;100.00;101321.75;4988691;28;20042;-76
2022/07/12 06:48:07;;;;;;;2.33;1.40;;;19.70;95.70;;;20.14;100.00;101322.50;4990689;28;20560;-75
2022/07/12 06:50:35;;;;;;;2.50;1.50;;;19.80;95.50;;;20.23;100.00;101330.03;4989886;28;20046;-76
2022/07/12 06:53:02;;;;;;;1.80;1.10;;;19.90;95.60;;;20.34;100.00;101337.50;4990058;28;20049;-76
2022/07/12 06:55:30;;;;;;;1.20;1.10;;;20.00;95.70;;;20.35;100.00;101327.69;4989734;28;20085;-76
2022/07/12 06:57:57;;;;;;;1.25;1.10;;;20.00;95.10;;;20.36;100.00;101340.13;4988703;28;20150;-75
2022/07/12 07:00:24;;;;;;;1.58;1.00;;;20.00;95.00;;;20.46;100.00;101337.84;4988182;28;20050;-75
2022/07/12 07:02:52;;;;;;;1.10;1.00;;;20.10;95.00;;;20.56;100.00;101333.78;4970334;28;20060;-77
2022/07/12 07:05:20;;;;;;;1.02;0.93;;;20.20;94.80;;;20.65;100.00;101335.09;4970601;28;20104;-76
2022/07/12 07:07:47;;;;;;;1.85;1.10;;;20.20;94.80;;;20.69;100.00;101331.31;4963452;28;20050;-75
2022/07/12 07:10:14;;;;;;;1.55;1.13;;;20.30;94.70;;;20.75;100.00;101324.78;4969727;28;20101;-76
2022/07/12 07:12:41;;;;;;;1.33;1.20;;;20.40;94.50;;;20.78;100.00;101335.31;4987739;28;20072;-76
2022/07/12 07:15:09;;;;;;;2.75;1.15;;;20.40;94.40;;;20.83;100.00;101336.84;4988011;28;20113;-75
2022/07/12 07:17:36;;;;;;;1.33;0.98;;;20.50;94.40;;;20.90;100.00;101342.75;4984390;28;20050;-75
2022/07/12 07:20:04;;;;;;;6.03;1.50;;;20.60;94.30;;;20.94;100.00;101344.31;4999662;28;20125;-76
2022/07/12 07:22:31;;;;;;;1.23;0.80;;;20.60;94.20;;;21.03;100.00;101347.47;4967999;28;20057;-75
2022/07/12 07:24:58;;;;;;;1.10;1.00;;;20.60;93.90;;;21.08;100.00;101348.06;4968264;28;20043;-76
2022/07/12 07:27:25;;;;;;;0.93;0.90;;;20.70;93.90;;;21.10;100.00;101340.84;4969559;28;20042;-76
2022/07/12 07:32:38;;;;;;;1.20;1.00;;;20.80;93.90;;;21.24;100.00;101342.78;4969461;28;20138;-75
2022/07/12 07:35:08;;;;;;;2.13;0.98;;;20.80;93.60;;;21.31;100.00;101338.81;4952045;28;20050;-76
2022/07/12 07:37:35;;;;;;;0.90;0.70;;;20.90;93.50;;;21.35;100.00;101339.53;4976072;28;20050;-77
2022/07/12 07:40:02;;;;;;;1.65;0.82;;;21.00;93.30;;;21.36;100.00;101334.06;4986990;28;20491;-76
2022/07/12 07:42:29;;;;;;;1.65;0.90;;;21.00;93.20;;;21.41;100.00;101328.47;4971728;28;20558;-76
2022/07/12 07:44:56;;;;;;;2.42;1.10;;;21.00;93.30;;;21.44;100.00;101328.31;4970999;28;20054;-76
2022/07/12 07:47:45;;;;;;;1.30;1.20;;;21.10;92.90;;;21.57;100.00;101324.94;4987654;28;20069;-76
2022/07/12 07:50:33;;;;;;;1.02;0.88;;;21.20;93.40;;;21.63;100.00;101321.94;4986683;28;20030;-76
2022/07/12 07:53:00;;;;;;;1.10;0.80;;;21.20;92.50;;;21.66;100.00;101329.84;4988616;28;20108;-75
2022/07/12 07:55:27;;;;;;;3.63;1.52;;;21.30;92.50;;;21.69;100.00;101321.63;4971003;28;20149;-77
2022/07/12 07:57:54;;;;;;;2.30;1.08;;;21.40;92.80;;;21.75;100.00;101331.97;4968835;28;20054;-76
2022/07/12 08:00:21;;;;;;;1.60;1.35;;;21.30;92.80;;;21.77;100.00;101313.16;4962946;28;20444;-76
2022/07/12 08:02:49;;;;;;;2.05;1.00;;;21.40;92.50;;;21.86;100.00;101317.13;4978290;28;20052;-76
2022/07/12 08:05:16;;;;;;;3.33;1.05;;;21.40;92.40;;;21.91;100.00;101310.56;4979500;28;20045;-76
2022/07/12 08:07:43;;;;;;;0.93;0.90;;;21.50;91.90;;;21.96;100.00;101316.50;4982392;28;20559;-77
2022/07/12 08:10:20;;;;;;;0.80;0.75;;;21.60;91.70;;;22.03;100.00;101318.88;4986528;28;20463;-76
2022/07/12 08:12:47;;;;;;;1.58;0.85;;;21.60;91.60;;;22.08;100.00;101317.63;4962028;28;20182;-77
2022/07/12 08:15:14;;;;;;;7.07;1.08;;;21.70;91.50;;;22.08;100.00;101317.63;4981368;28;20125;-76
2022/07/12 08:17:41;;;;;;;2.38;0.70;;;21.70;91.60;;;22.21;100.00;101316.91;4986299;28;20045;-77
2022/07/12 08:20:22;;;;;;;2.40;0.65;;;21.80;91.70;;;22.35;100.00;101325.00;4980681;28;20042;-76
2022/07/12 08:23:10;;;;;;;3.28;1.00;;;21.80;91.60;;;22.37;100.00;101315.06;4987807;28;20133;-77
2022/07/12 08:25:37;;;;;;;1.25;0.75;;;22.00;91.50;;;22.53;100.00;101327.59;4982874;28;20440;-76
2022/07/12 08:28:04;;;;;;;2.33;1.42;;;22.00;91.40;;;22.60;100.00;101322.72;4974113;28;20122;-76
2022/07/12 08:30:31;;;;;;;1.10;1.00;;;22.10;91.20;;;22.68;100.00;101323.16;4968014;28;20038;-76
2022/07/12 08:32:58;;;;;;;1.73;0.95;;;22.20;91.10;;;22.72;100.00;101323.81;4967612;28;20047;-76
2022/07/12 08:35:25;;;;;;;3.28;1.00;;;22.30;91.10;;;22.84;100.00;101316.84;4967919;28;20055;-77
2022/07/12 08:37:52;;;;;;;0.90;0.82;;;22.40;91.10;;;22.89;98.96;101323.66;4967934;28;20043;-76
2022/07/12 08:40:21;;;;;;;1.25;0.70;;;22.40;90.70;;;22.95;94.25;101322.44;4968516;28;20521;-76
2022/07/12 08:42:48;;;;;;;1.65;0.75;;;22.50;90.20;;;22.95;97.61;101315.22;4968368;28;20047;-76
2022/07/12 08:45:16;;;;;;;1.00;0.90;;;22.60;90.40;;;23.04;97.11;101324.53;4967148;28;20054;-77
2022/07/12 08:47:43;;;;;;;1.13;0.85;;;22.60;90.30;;;23.10;94.24;101323.28;4985302;28;20096;-76
2022/07/12 08:50:19;;;;;;;1.98;0.85;;;22.70;90.00;;;23.22;90.54;101321.66;4987362;28;20050;-76
2022/07/12 08:52:52;;;;;;;0.90;0.60;;;22.80;89.40;;;23.23;91.02;101326.06;4987433;28;20054;-76
2022/07/12 08:55:31;;;;;;;0.90;0.63;;;22.90;89.30;;;23.45;91.96;101333.66;4986421;28;20047;-76
2022/07/12 08:58:02;;;;;;;1.58;0.70;;;22.90;89.20;;;23.55;89.80;101327.72;4987096;28;20050;-76
2022/07/12 09:00:31;;;;;;;1.00;0.77;;;23.10;89.10;;;23.69;86.80;101326.81;4970566;28;20042;-77
2022/07/12 09:03:03;;;;;;;1.30;0.90;;;23.20;88.50;;;23.78;82.28;101326.22;4990534;28;20078;-77
2022/07/12 09:05:34;;;;;;;1.00;0.90;;;23.30;87.70;;;23.93;82.28;101327.91;4990250;28;20046;-76
2022/07/12 09:08:07;;;;;;;1.08;0.85;;;23.60;87.40;;;24.03;78.54;101325.53;4991788;28;20462;-76
2022/07/12 09:10:51;;;;;;;0.98;0.80;;;23.60;86.40;;;24.10;81.58;101333.16;4973853;28;20065;-77
2022/07/12 09:13:19;;;;;;;1.45;0.70;;;23.60;86.90;;;23.94;78.69;101331.44;4971008;28;20122;-77
2022/07/12 09:15:50;;;;;;;1.70;0.90;;;23.60;85.80;;;23.94;77.34;101328.75;4972820;28;20070;-77
2022/07/12 09:18:22;;;;;;;2.83;0.70;;;23.60;85.50;;;24.03;75.38;101325.53;4991607;28;20045;-77
2022/07/12 09:20:53;;;;;;;6.32;0.82;;;23.70;85.00;;;24.21;81.31;101331.50;4974401;28;20057;-77
2022/07/12 09:23:20;;;;;;;;;;;23.70;86.30;;;24.50;76.99;101339.41;4974556;28;20046;-77
2022/07/12 09:25:48;;;;;;;1.55;0.90;;;23.80;85.60;;;24.54;76.71;101332.00;4991824;28;19932;-77
2022/07/12 09:28:16;;;;;;;1.07;0.93;;;24.10;85.60;;;24.44;75.26;101337.16;4973847;28;20109;-77
2022/07/12 09:30:55;;;;;;;2.33;1.20;;;24.10;84.80;;;24.63;73.51;101330.50;4989888;28;20121;-77
2022/07/12 09:36:15;;;;;;;2.05;1.45;;;24.30;84.00;;;24.87;73.68;101333.38;4991117;28;20046;-77
2022/07/12 09:38:53;;;;;;;1.13;0.82;;;24.40;84.30;;;24.89;74.40;101323.34;4974837;28;20406;-77
2022/07/12 09:41:21;;;;;;;1.10;0.80;;;24.50;84.10;;;24.81;73.42;101322.16;4990124;28;20057;-76
2022/07/12 09:43:50;;;;;;;1.25;1.00;;;24.50;83.60;;;24.86;73.92;101320.88;4991142;28;20184;-78
2022/07/12 09:46:18;;;;;;;2.20;0.90;;;24.50;83.70;;;24.82;72.90;101322.06;4990979;28;20667;-78
2022/07/12 09:48:46;;;;;;;0.50;0.50;;;24.50;83.30;;;24.74;72.48;101319.88;4991804;28;20141;-78
2022/07/12 09:51:18;;;;;;;2.47;0.90;;;24.50;83.10;;;24.58;69.97;101303.91;4991789;28;20140;-79
2022/07/12 09:53:48;;;;;;;1.10;0.70;;;24.50;82.10;;;24.64;74.51;101313.41;4975413;28;20046;-79
2022/07/12 09:56:20;;;;;;;1.70;1.00;;;24.40;83.60;;;24.80;71.90;101307.00;4991782;28;20074;-79
2022/07/12 09:58:59;;;;;;;1.73;0.90;;;24.40;82.80;;;25.01;69.95;101304.63;4975666;28;20049;-79
2022/07/12 10:01:30;;;;;;;0.90;0.70;;;24.50;82.80;;;25.26;65.47;101316.34;4986570;28;20428;-77
2022/07/12 10:04:00;;;;;;;1.05;0.80;;;24.70;81.90;;;25.28;66.81;101304.47;4954497;28;20500;-75
2022/07/12 10:06:29;;;;;;;;;;;24.80;82.00;;;25.38;68.14;101298.44;4969404;28;20039;-76
2022/07/12 10:09:03;;;;;;;2.42;1.00;;;24.80;82.10;;;25.34;66.41;101304.06;4970606;28;19926;-77
2022/07/12 10:11:31;;;;;;;1.48;0.82;;;25.00;81.50;;;25.13;62.88;101303.75;4962778;28;20154;-76
2022/07/12 10:14:20;;;;;;;0.88;0.80;;;24.90;79.90;;;25.17;63.05;101299.03;4968896;28;20043;-76
2022/07/12 10:16:52;;;;;;;0.88;0.65;;;24.90;79.80;;;25.30;62.14;101301.69;4977709;28;20061;-76
2022/07/12 10:19:28;;;;;;;1.50;0.70;;;24.90;79.80;;;25.35;60.70;101302.22;4968896;28;20070;-76
2022/07/12 10:21:58;;;;;;;1.20;0.80;;;24.90;79.40;;;25.41;54.59;101301.78;4969459;28;20066;-76